Time;durP1;ratioP1;P1;durP2;ratioP2;P2;SDS_P1;SDS_P2;PMS_P1;PMS_P2;Temp;Humidity;BMP_temperature;BMP_pressure;BME280_temperature;BME280_humidity;BME280_pressure;Samples;Min_cycle;Max_cycle;Signal;HPM_P1;HPM_P2
2021/12/28 00:00:06;;;;;;;;;;;12.30;99.90;;;;;;5020764;28;19910;-73
2021/12/28 00:02:32;;;;;;;;;;;12.20;99.90;;;;;;5018692;28;20368;-73
2021/12/28 00:04:57;;;;;;;;;;;12.20;99.90;;;;;;5018700;28;20000;-73
2021/12/28 00:07:23;;;;;;;;;;;12.20;99.90;;;;;;5018941;28;19909;-73
2021/12/28 00:09:49;;;;;;;;;;;12.10;99.90;;;;;;5018300;28;19910;-73
2021/12/28 00:12:14;;;;;;;;;;;12.10;99.90;;;;;;5018449;28;19914;-73
2021/12/28 00:14:49;;;;;;;;;;;12.00;99.90;;;;;;5018554;28;19909;-73
2021/12/28 00:19:59;;;;;;;;;;;11.90;99.90;;;;;;5018572;28;19917;-73
2021/12/28 00:22:24;;;;;;;;;;;11.90;99.90;;;;;;5018184;28;19913;-76
2021/12/28 00:24:50;;;;;;;;;;;11.80;99.90;;;;;;5018713;28;19913;-73
2021/12/28 00:27:16;;;;;;;;;;;11.80;99.90;;;;;;5018042;28;20284;-74
2021/12/28 00:29:42;;;;;;;;;;;11.70;99.90;;;;;;5018424;28;20398;-73
2021/12/28 00:32:09;;;;;;;;;;;11.70;99.90;;;;;;5020389;28;19909;-73
2021/12/28 00:34:35;;;;;;;;;;;11.70;99.90;;;;;;5018416;28;19914;-73
2021/12/28 00:37:01;;;;;;;;;;;11.70;99.90;;;;;;5018322;28;19909;-73
2021/12/28 00:39:26;;;;;;;;;;;11.60;99.90;;;;;;5018184;28;19937;-73
2021/12/28 00:41:52;;;;;;;;;;;11.60;99.90;;;;;;5017658;28;20314;-74
2021/12/28 00:44:18;;;;;;;;;;;11.60;99.90;;;;;;5018133;28;19937;-73
2021/12/28 00:46:44;;;;;;;;;;;11.60;99.90;;;;;;5018192;28;19910;-73
2021/12/28 00:49:10;;;;;;;;;;;11.50;99.90;;;;;;5018282;28;19916;-73
2021/12/28 00:51:37;;;;;;;;;;;11.50;99.90;;;;;;5018163;28;19980;-73
2021/12/28 00:54:03;;;;;;;;;;;11.50;99.90;;;;;;5017885;28;19984;-73
2021/12/28 00:56:28;;;;;;;;;;;11.50;99.90;;;;;;5017694;28;20427;-73
2021/12/28 00:58:54;;;;;;;;;;;11.50;99.90;;;;;;5018113;28;19909;-73
2021/12/28 01:01:20;;;;;;;;;;;11.50;99.90;;;;;;5018863;28;19996;-73
2021/12/28 01:03:46;;;;;;;;;;;11.50;99.90;;;;;;5017851;28;19920;-74
2021/12/28 01:06:12;;;;;;;;;;;11.50;99.90;;;;;;5017927;28;19910;-74
2021/12/28 01:08:38;;;;;;;;;;;11.40;99.90;;;;;;5017834;28;19909;-73
2021/12/28 01:11:05;;;;;;;;;;;11.50;99.90;;;;;;5017480;28;19910;-74
2021/12/28 01:13:31;;;;;;;;;;;11.50;99.90;;;;;;5016713;28;19936;-74
2021/12/28 01:15:57;;;;;;;;;;;11.50;99.90;;;;;;5016379;28;19999;-74
2021/12/28 01:18:23;;;;;;;;;;;11.50;99.90;;;;;;5016453;28;19909;-74
2021/12/28 01:20:49;;;;;;;;;;;11.40;99.90;;;;;;4999992;28;20376;-74
2021/12/28 01:23:15;;;;;;;;;;;11.50;99.90;;;;;;5021489;28;20008;-74
2021/12/28 01:25:41;;;;;;;;;;;11.40;99.90;;;;;;5021373;28;19909;-74
2021/12/28 01:28:07;;;;;;;;;;;11.40;99.90;;;;;;5020294;28;20361;-74
2021/12/28 01:30:33;;;;;;;;;;;11.40;99.90;;;;;;5021548;28;20372;-74
2021/12/28 01:33:00;;;;;;;;;;;11.40;99.90;;;;;;5023359;28;19914;-74
2021/12/28 01:35:27;;;;;;;;;;;11.40;99.90;;;;;;5021624;28;19964;-73
2021/12/28 01:37:53;;;;;;;;;;;11.40;99.90;;;;;;5021687;28;19910;-73
2021/12/28 01:40:23;;;;;;;;;;;11.30;99.90;;;;;;5021429;28;19988;-73
2021/12/28 01:42:55;;;;;;;;;;;11.40;99.90;;;;;;5021189;28;19956;-74
2021/12/28 01:45:42;;;;;;;;;;;11.40;99.90;;;;;;5021460;28;19909;-73
2021/12/28 01:48:09;;;;;;;;;;;11.40;99.90;;;;;;5021320;28;19910;-74
2021/12/28 01:50:36;;;;;;;;;;;11.30;99.90;;;;;;5021593;28;20012;-73
2021/12/28 01:53:02;;;;;;;;;;;11.30;99.90;;;;;;5019892;28;19988;-73
2021/12/28 01:55:28;;;;;;;;;;;11.30;99.90;;;;;;5021321;28;19910;-73
2021/12/28 01:57:54;;;;;;;;;;;11.30;99.90;;;;;;5020851;28;20422;-73
2021/12/28 02:00:20;;;;;;;;;;;11.20;99.90;;;;;;5023442;28;19996;-73
2021/12/28 02:02:45;;;;;;;;;;;11.20;99.90;;;;;;5020823;28;19971;-74
2021/12/28 02:05:11;;;;;;;;;;;11.30;99.90;;;;;;5021328;28;19910;-74
2021/12/28 02:07:37;;;;;;;;;;;11.30;99.90;;;;;;5019636;28;19952;-73
2021/12/28 02:10:03;;;;;;;;;;;11.30;99.90;;;;;;5021363;28;19909;-74
2021/12/28 02:12:29;;;;;;;;;;;11.30;99.90;;;;;;5020560;28;20316;-74
2021/12/28 02:14:55;;;;;;;;;;;11.30;99.90;;;;;;5021187;28;20356;-74
2021/12/28 02:17:21;;;;;;;;;;;11.30;99.90;;;;;;5020782;28;19932;-74
2021/12/28 02:19:46;;;;;;;;;;;11.20;99.90;;;;;;5020936;28;19909;-74
2021/12/28 02:22:12;;;;;;;;;;;11.20;99.90;;;;;;5019428;28;19913;-73
2021/12/28 02:24:38;;;;;;;;;;;11.20;99.90;;;;;;5019381;28;20080;-73
2021/12/28 02:27:04;;;;;;;;;;;11.20;99.90;;;;;;5020245;28;19964;-74
2021/12/28 02:29:29;;;;;;;;;;;11.30;99.90;;;;;;5019919;28;19913;-74
2021/12/28 02:31:58;;;;;;;;;;;11.30;99.90;;;;;;5021416;28;19910;-74
2021/12/28 02:34:24;;;;;;;;;;;11.40;99.90;;;;;;5020538;28;19949;-74
2021/12/28 02:36:50;;;;;;;;;;;11.50;99.90;;;;;;5020500;28;19910;-74
2021/12/28 02:39:16;;;;;;;;;;;11.50;99.90;;;;;;5019308;28;19909;-74
2021/12/28 02:41:42;;;;;;;;;;;11.60;99.90;;;;;;5018409;28;19925;-74
2021/12/28 02:44:08;;;;;;;;;;;11.60;99.90;;;;;;5019251;28;19909;-74
2021/12/28 02:46:33;;;;;;;;;;;11.60;99.80;;;;;;5018903;28;19913;-74
2021/12/28 02:48:59;;;;;;;;;;;11.60;99.70;;;;;;5020289;28;19909;-74
2021/12/28 02:51:25;;;;;;;;;;;11.70;99.60;;;;;;5020240;28;19909;-74
2021/12/28 02:53:50;;;;;;;;;;;11.70;99.40;;;;;;5020080;28;19969;-74
2021/12/28 02:56:18;;;;;;;;;;;11.70;99.30;;;;;;5019809;28;19910;-74
2021/12/28 02:58:45;;;;;;;;;;;11.70;99.30;;;;;;5019013;28;19968;-74
2021/12/28 03:01:21;;;;;;;;;;;11.70;99.20;;;;;;5022371;28;19909;-75
2021/12/28 03:03:49;;;;;;;;;;;11.70;99.30;;;;;;5018612;28;19909;-75
2021/12/28 03:06:16;;;;;;;;;;;11.70;99.20;;;;;;5018453;28;20280;-74
2021/12/28 03:08:46;;;;;;;;;;;11.70;99.20;;;;;;5019827;28;19917;-74
2021/12/28 03:11:13;;;;;;;;;;;11.70;99.10;;;;;;5018331;28;19969;-74
2021/12/28 03:13:40;;;;;;;;;;;11.80;99.00;;;;;;5019755;28;20369;-74
2021/12/28 03:16:06;;;;;;;;;;;11.80;98.90;;;;;;5019720;28;19916;-74
2021/12/28 03:18:32;;;;;;;;;;;11.80;99.20;;;;;;5020040;28;19999;-74
2021/12/28 03:20:58;;;;;;;;;;;11.80;98.90;;;;;;5019583;28;19917;-74
2021/12/28 03:23:25;;;;;;;;;;;11.90;98.90;;;;;;5019289;28;19922;-74
2021/12/28 03:25:51;;;;;;;;;;;11.80;98.80;;;;;;5019085;28;20348;-74
2021/12/28 03:28:25;;;;;;;;;;;11.80;98.80;;;;;;5018476;28;19992;-74
2021/12/28 03:30:52;;;;;;;;;;;11.90;98.70;;;;;;5019692;28;20036;-74
2021/12/28 03:33:19;;;;;;;;;;;11.80;98.80;;;;;;5022423;28;20273;-74
2021/12/28 03:35:45;;;;;;;;;;;11.90;98.70;;;;;;5019218;28;19963;-74
2021/12/28 03:38:10;;;;;;;;;;;11.90;98.50;;;;;;5018225;28;20011;-74
2021/12/28 03:40:36;;;;;;;;;;;12.00;98.50;;;;;;5017520;28;19909;-74
2021/12/28 03:43:02;;;;;;;;;;;12.00;98.20;;;;;;5018956;28;20284;-74
2021/12/28 03:45:28;;;;;;;;;;;12.00;98.00;;;;;;5018802;28;19909;-74
2021/12/28 03:47:54;;;;;;;;;;;12.00;98.00;;;;;;5019428;28;19984;-74
2021/12/28 03:50:19;;;;;;;;;;;12.00;98.00;;;;;;5017831;28;19993;-74
2021/12/28 03:52:46;;;;;;;;;;;12.00;98.10;;;;;;5019039;28;19917;-75
2021/12/28 03:55:11;;;;;;;;;;;12.00;98.30;;;;;;5018724;28;19929;-74
2021/12/28 03:57:39;;;;;;;;;;;12.00;98.30;;;;;;5018713;28;19909;-75
2021/12/28 04:00:08;;;;;;;;;;;12.00;98.20;;;;;;5021896;28;19916;-75
2021/12/28 04:02:34;;;;;;;;;;;12.00;98.30;;;;;;5017281;28;19917;-74
2021/12/28 04:05:00;;;;;;;;;;;12.10;98.40;;;;;;5018950;28;20297;-74
2021/12/28 04:07:25;;;;;;;;;;;12.10;98.40;;;;;;5018793;28;19964;-74
2021/12/28 04:12:17;;;;;;;;;;;12.10;98.70;;;;;;5018303;28;19917;-74
2021/12/28 04:14:43;;;;;;;;;;;12.20;99.00;;;;;;5017247;28;19910;-74
2021/12/28 04:17:09;;;;;;;;;;;12.20;99.30;;;;;;5018591;28;20284;-74
2021/12/28 04:19:34;;;;;;;;;;;12.20;99.60;;;;;;5018388;28;20392;-74
2021/12/28 04:22:00;;;;;;;;;;;12.20;99.90;;;;;;5018534;28;20365;-74
2021/12/28 04:24:26;;;;;;;;;;;12.20;99.90;;;;;;5018129;28;20371;-74
2021/12/28 04:26:51;;;;;;;;;;;12.20;99.90;;;;;;5018245;28;19909;-74
2021/12/28 04:29:17;;;;;;;;;;;12.30;99.90;;;;;;5018289;28;19945;-75
2021/12/28 04:31:42;;;;;;;;;;;12.20;99.90;;;;;;5018792;28;19913;-75
2021/12/28 04:34:08;;;;;;;;;;;12.30;99.90;;;;;;5019542;28;19910;-74
2021/12/28 04:36:34;;;;;;;;;;;12.20;99.90;;;;;;5018157;28;20253;-75
2021/12/28 04:38:59;;;;;;;;;;;12.20;99.90;;;;;;5018025;28;19914;-75
2021/12/28 04:41:25;;;;;;;;;;;12.20;99.90;;;;;;5018011;28;19910;-75
2021/12/28 04:43:51;;;;;;;;;;;12.20;99.90;;;;;;5016801;28;19945;-74
2021/12/28 04:46:17;;;;;;;;;;;12.20;99.90;;;;;;5018094;28;19956;-75
2021/12/28 04:48:42;;;;;;;;;;;12.30;99.90;;;;;;5018586;28;19909;-75
2021/12/28 04:51:08;;;;;;;;;;;12.30;99.90;;;;;;5018196;28;19969;-74
2021/12/28 04:53:34;;;;;;;;;;;12.30;99.90;;;;;;5018043;28;19910;-75
2021/12/28 04:56:00;;;;;;;;;;;12.40;99.90;;;;;;5015704;28;20771;-75
2021/12/28 04:58:26;;;;;;;;;;;12.40;99.90;;;;;;5018030;28;20004;-75
2021/12/28 05:00:52;;;;;;;;;;;12.40;99.90;;;;;;5020476;28;19916;-75
2021/12/28 05:03:18;;;;;;;;;;;12.40;99.90;;;;;;5017692;28;19955;-75
2021/12/28 05:05:46;;;;;;;;;;;12.50;99.90;;;;;;5016540;28;19988;-74
2021/12/28 05:08:12;;;;;;;;;;;12.50;99.90;;;;;;5017697;28;19910;-74
2021/12/28 05:10:38;;;;;;;;;;;12.60;99.90;;;;;;5017462;28;19913;-74
2021/12/28 05:13:04;;;;;;;;;;;12.60;99.90;;;;;;5017661;28;20414;-74
2021/12/28 05:15:30;;;;;;;;;;;12.60;99.90;;;;;;5017706;28;19992;-75
2021/12/28 05:17:55;;;;;;;;;;;12.70;99.90;;;;;;5017621;28;19909;-74
2021/12/28 05:20:21;;;;;;;;;;;12.60;99.90;;;;;;5000049;28;19996;-75
2021/12/28 05:22:47;;;;;;;;;;;12.70;99.90;;;;;;5016190;28;20001;-74
2021/12/28 05:25:12;;;;;;;;;;;12.70;99.90;;;;;;5016512;28;19910;-74
2021/12/28 05:27:39;;;;;;;;;;;12.60;99.90;;;;;;5016171;28;19956;-74
2021/12/28 05:30:07;;;;;;;;;;;12.60;99.90;;;;;;5017594;28;20376;-75
2021/12/28 05:32:33;;;;;;;;;;;12.70;99.90;;;;;;5017873;28;19956;-75
2021/12/28 05:34:58;;;;;;;;;;;12.60;99.90;;;;;;5017665;28;19909;-75
2021/12/28 05:37:24;;;;;;;;;;;12.60;99.70;;;;;;5017518;28;19960;-74
2021/12/28 05:39:50;;;;;;;;;;;12.60;98.50;;;;;;5016076;28;19910;-74
2021/12/28 05:42:15;;;;;;;;;;;12.60;98.00;;;;;;5015710;28;19941;-75
2021/12/28 05:44:41;;;;;;;;;;;12.60;97.40;;;;;;5017539;28;19910;-74
2021/12/28 05:47:07;;;;;;;;;;;12.60;97.20;;;;;;5016244;28;19916;-75
2021/12/28 05:49:32;;;;;;;;;;;12.50;97.30;;;;;;5017565;28;19910;-75
2021/12/28 05:51:58;;;;;;;;;;;12.50;96.90;;;;;;5017330;28;19917;-74
2021/12/28 05:54:24;;;;;;;;;;;12.50;96.30;;;;;;5016697;28;19971;-74
2021/12/28 05:56:50;;;;;;;;;;;12.50;95.70;;;;;;5017006;28;19909;-75
2021/12/28 05:59:15;;;;;;;;;;;12.50;95.80;;;;;;5018203;28;19915;-75
2021/12/28 06:01:41;;;;;;;;;;;12.50;96.10;;;;;;5017821;28;20356;-76
2021/12/28 06:04:07;;;;;;;;;;;12.40;95.80;;;;;;5017347;28;20000;-78
2021/12/28 06:06:33;;;;;;;;;;;12.40;95.50;;;;;;5017443;28;19972;-76
2021/12/28 06:08:58;;;;;;;;;;;12.50;95.20;;;;;;5020476;28;19909;-76
2021/12/28 06:11:24;;;;;;;;;;;12.40;95.20;;;;;;5020558;28;19909;-76
2021/12/28 06:13:50;;;;;;;;;;;12.40;94.80;;;;;;5020939;28;19909;-77
2021/12/28 06:16:15;;;;;;;;;;;12.40;94.90;;;;;;5020931;28;19916;-77
2021/12/28 06:18:41;;;;;;;;;;;12.30;95.10;;;;;;5020866;28;19917;-78
2021/12/28 06:21:07;;;;;;;;;;;12.40;95.30;;;;;;5020628;28;20004;-77
2021/12/28 06:23:33;;;;;;;;;;;12.40;95.00;;;;;;5020465;28;19943;-79
2021/12/28 06:25:59;;;;;;;;;;;12.30;94.80;;;;;;5020176;28;19910;-76
2021/12/28 06:28:25;;;;;;;;;;;12.30;95.10;;;;;;5020716;28;19984;-76
2021/12/28 06:30:53;;;;;;;;;;;12.40;94.60;;;;;;5019087;28;19945;-76
2021/12/28 06:33:20;;;;;;;;;;;12.30;94.20;;;;;;5023281;28;19909;-76
2021/12/28 06:35:46;;;;;;;;;;;12.30;93.80;;;;;;5020547;28;19909;-76
2021/12/28 06:38:11;;;;;;;;;;;12.40;94.00;;;;;;5020544;28;19973;-76
2021/12/28 06:40:37;;;;;;;;;;;12.40;93.20;;;;;;5020109;28;19997;-76
2021/12/28 06:43:03;;;;;;;;;;;12.30;93.20;;;;;;5020110;28;19917;-76
2021/12/28 06:45:28;;;;;;;;;;;12.30;93.10;;;;;;5020178;28;19909;-76
2021/12/28 06:47:54;;;;;;;;;;;12.30;93.00;;;;;;5018901;28;20273;-75
2021/12/28 06:50:20;;;;;;;;;;;12.20;92.80;;;;;;5020095;28;19910;-76
2021/12/28 06:52:45;;;;;;;;;;;12.20;92.70;;;;;;5020092;28;20307;-79
2021/12/28 06:55:11;;;;;;;;;;;12.20;93.00;;;;;;5019953;28;19968;-78
2021/12/28 06:57:37;;;;;;;;;;;12.20;92.50;;;;;;5019819;28;20368;-75
2021/12/28 07:00:05;;;;;;;;;;;12.20;92.50;;;;;;5022801;28;19960;-75
2021/12/28 07:02:30;;;;;;;;;;;12.20;92.60;;;;;;5019765;28;19914;-75
2021/12/28 07:04:56;;;;;;;;;;;12.20;91.90;;;;;;5020075;28;19915;-76
2021/12/28 07:07:21;;;;;;;;;;;12.20;91.80;;;;;;5018409;28;20333;-76
2021/12/28 07:09:47;;;;;;;;;;;12.10;92.10;;;;;;5018231;28;19971;-76
2021/12/28 07:12:13;;;;;;;;;;;12.10;91.80;;;;;;5019397;28;19945;-76
2021/12/28 07:14:38;;;;;;;;;;;12.00;92.50;;;;;;5019594;28;19910;-76
2021/12/28 07:17:04;;;;;;;;;;;12.10;92.50;;;;;;5019901;28;19967;-76
2021/12/28 07:19:30;;;;;;;;;;;12.00;92.40;;;;;;5018610;28;19921;-76
2021/12/28 07:21:56;;;;;;;;;;;12.00;92.50;;;;;;5019580;28;20364;-76
2021/12/28 07:24:21;;;;;;;;;;;12.00;92.70;;;;;;5019118;28;19979;-76
2021/12/28 07:26:47;;;;;;;;;;;11.90;92.80;;;;;;5019253;28;19960;-76
2021/12/28 07:29:13;;;;;;;;;;;12.00;92.20;;;;;;5019338;28;19909;-76
2021/12/28 07:31:39;;;;;;;;;;;12.00;92.40;;;;;;5019460;28;19914;-76
2021/12/28 07:34:05;;;;;;;;;;;12.00;92.30;;;;;;5021365;28;19959;-75
2021/12/28 07:36:31;;;;;;;;;;;12.00;92.20;;;;;;5019404;28;19917;-76
2021/12/28 07:38:56;;;;;;;;;;;11.90;92.40;;;;;;5019056;28;19910;-76
2021/12/28 07:41:22;;;;;;;;;;;11.90;92.60;;;;;;5018980;28;19910;-75
2021/12/28 07:43:48;;;;;;;;;;;11.90;92.70;;;;;;5019249;28;19909;-76
2021/12/28 07:46:14;;;;;;;;;;;11.90;92.50;;;;;;5019132;28;19919;-76
2021/12/28 07:48:40;;;;;;;;;;;11.90;92.70;;;;;;5019231;28;19997;-76
2021/12/28 07:51:07;;;;;;;;;;;11.80;93.00;;;;;;5019009;28;20364;-76
2021/12/28 07:53:33;;;;;;;;;;;11.80;93.30;;;;;;5018875;28;19909;-76
2021/12/28 07:55:59;;;;;;;;;;;11.80;93.00;;;;;;5018488;28;19960;-76
2021/12/28 07:58:25;;;;;;;;;;;11.80;93.20;;;;;;5018892;28;19914;-76
2021/12/28 08:00:51;;;;;;;;;;;11.80;93.20;;;;;;5021829;28;19910;-76
2021/12/28 08:03:18;;;;;;;;;;;11.80;93.60;;;;;;5018646;28;19965;-76
2021/12/28 08:05:44;;;;;;;;;;;11.80;93.50;;;;;;5018767;28;19917;-76
2021/12/28 08:08:10;;;;;;;;;;;11.80;93.60;;;;;;5018739;28;19913;-76
2021/12/28 08:10:36;;;;;;;;;;;11.80;94.00;;;;;;5018283;28;19909;-76
2021/12/28 08:13:01;;;;;;;;;;;11.80;94.00;;;;;;5018540;28;19910;-76
2021/12/28 08:15:27;;;;;;;;;;;11.70;94.10;;;;;;5018833;28;19910;-76
2021/12/28 08:17:53;;;;;;;;;;;11.70;94.20;;;;;;5018622;28;20419;-76
2021/12/28 08:20:19;;;;;;;;;;;11.70;94.30;;;;;;5018486;28;19982;-76
2021/12/28 08:22:45;;;;;;;;;;;11.70;93.80;;;;;;5018179;28;19975;-76
2021/12/28 08:25:12;;;;;;;;;;;11.80;93.60;;;;;;5018361;28;20395;-76
2021/12/28 08:27:38;;;;;;;;;;;11.80;93.40;;;;;;5017975;28;19909;-76
2021/12/28 08:30:05;;;;;;;;;;;11.80;93.20;;;;;;5018208;28;19913;-76
2021/12/28 08:32:31;;;;;;;;;;;11.80;93.30;;;;;;5021127;28;19945;-76
2021/12/28 08:34:57;;;;;;;;;;;11.80;93.40;;;;;;5018537;28;20285;-76
2021/12/28 08:37:22;;;;;;;;;;;11.80;93.50;;;;;;5018072;28;19916;-76
2021/12/28 08:39:48;;;;;;;;;;;11.80;93.20;;;;;;5018396;28;20428;-76
2021/12/28 08:42:14;;;;;;;;;;;11.80;93.20;;;;;;5017557;28;19972;-76
2021/12/28 08:44:40;;;;;;;;;;;11.80;93.10;;;;;;5018196;28;19910;-75
2021/12/28 08:47:05;;;;;;;;;;;11.80;93.10;;;;;;5017996;28;19910;-76
2021/12/28 08:49:31;;;;;;;;;;;11.80;93.10;;;;;;5018085;28;19917;-75
2021/12/28 08:51:57;;;;;;;;;;;11.80;92.90;;;;;;5017929;28;19909;-76
2021/12/28 08:54:22;;;;;;;;;;;11.80;93.40;;;;;;5017861;28;19988;-76
2021/12/28 08:56:50;;;;;;;;;;;11.80;93.00;;;;;;5017554;28;19913;-76
2021/12/28 08:59:16;;;;;;;;;;;11.90;92.90;;;;;;5018875;28;19940;-76
2021/12/28 09:01:42;;;;;;;;;;;11.90;93.10;;;;;;5019438;28;19924;-76
2021/12/28 09:04:08;;;;;;;;;;;11.90;93.10;;;;;;5017855;28;19910;-76
2021/12/28 09:06:33;;;;;;;;;;;11.90;93.00;;;;;;5017680;28;19917;-76
2021/12/28 09:08:59;;;;;;;;;;;11.90;92.90;;;;;;5016361;28;19949;-76
2021/12/28 09:11:25;;;;;;;;;;;12.00;92.60;;;;;;5016036;28;19917;-76
2021/12/28 09:13:51;;;;;;;;;;;12.00;92.60;;;;;;5017906;28;19910;-76
2021/12/28 09:16:16;;;;;;;;;;;12.00;92.80;;;;;;5017775;28;19916;-76
2021/12/28 09:18:42;;;;;;;;;;;12.00;93.00;;;;;;5017617;28;19968;-76
2021/12/28 09:21:08;;;;;;;;;;;12.10;92.80;;;;;;5017466;28;20395;-76
2021/12/28 09:23:33;;;;;;;;;;;12.00;93.10;;;;;;5017461;28;19980;-76
2021/12/28 09:25:59;;;;;;;;;;;12.10;92.80;;;;;;5017267;28;19916;-76
2021/12/28 09:28:25;;;;;;;;;;;12.10;93.00;;;;;;5016224;28;19957;-76
2021/12/28 09:30:51;;;;;;;;;;;12.20;92.70;;;;;;5017585;28;19910;-76
2021/12/28 09:33:18;;;;;;;;;;;12.20;92.80;;;;;;5018629;28;19959;-75
2021/12/28 09:35:44;;;;;;;;;;;12.20;92.50;;;;;;5017436;28;19910;-76
2021/12/28 09:38:10;;;;;;;;;;;12.30;92.20;;;;;;5016171;28;19932;-76
2021/12/28 09:40:36;;;;;;;;;;;12.30;92.50;;;;;;5016968;28;19909;-76
2021/12/28 09:43:03;;;;;;;;;;;12.30;92.20;;;;;;5019047;28;19913;-76
2021/12/28 09:45:29;;;;;;;;;;;12.40;91.80;;;;;;5021277;28;19914;-76
2021/12/28 09:47:55;;;;;;;;;;;12.40;92.00;;;;;;5021507;28;19924;-76
2021/12/28 09:50:21;;;;;;;;;;;12.40;91.70;;;;;;5021083;28;19913;-76
2021/12/28 09:52:48;;;;;;;;;;;12.50;92.20;;;;;;5021209;28;19911;-76
2021/12/28 09:55:14;;;;;;;;;;;12.60;92.10;;;;;;5021066;28;19970;-76
2021/12/28 09:57:40;;;;;;;;;;;12.60;91.80;;;;;;5021133;28;19917;-76
2021/12/28 10:00:07;;;;;;;;;;;12.60;91.40;;;;;;5023720;28;19910;-76
2021/12/28 10:02:35;;;;;;;;;;;12.60;91.60;;;;;;5020999;28;19920;-76
2021/12/28 10:05:05;;;;;;;;;;;12.70;91.90;;;;;;5020822;28;19910;-76
2021/12/28 10:07:31;;;;;;;;;;;12.60;92.10;;;;;;5021029;28;19940;-76
2021/12/28 10:09:57;;;;;;;;;;;12.70;91.10;;;;;;5020637;28;20319;-76
2021/12/28 10:12:31;;;;;;;;;;;12.60;91.30;;;;;;5020648;28;20004;-76
2021/12/28 10:15:00;;;;;;;;;;;12.70;91.50;;;;;;5020905;28;19916;-76
2021/12/28 10:17:27;;;;;;;;;;;12.60;91.70;;;;;;5020903;28;19909;-76
2021/12/28 10:19:53;;;;;;;;;;;12.70;91.00;;;;;;5020938;28;20048;-76
2021/12/28 10:22:26;;;;;;;;;;;12.70;91.20;;;;;;5020567;28;19918;-76
2021/12/28 10:24:53;;;;;;;;;;;12.70;91.20;;;;;;4981776;28;19933;-74
2021/12/28 10:27:20;;;;;;;;;;;12.70;91.20;;;;;;4981219;28;20281;-77
2021/12/28 10:29:46;;;;;;;;;;;12.70;90.80;;;;;;4981589;28;19910;-75
2021/12/28 10:32:23;;;;;;;;;;;12.70;91.20;;;;;;4984046;28;19997;-78
2021/12/28 10:34:54;;;;;;;;;;;12.80;91.00;;;;;;4980114;28;19917;-76
2021/12/28 10:37:25;;;;;;;;;;;12.80;91.20;;;;;;4981186;28;20286;-76
2021/12/28 10:39:53;;;;;;;;;;;12.80;90.70;;;;;;4981170;28;19957;-76
2021/12/28 10:42:37;;;;;;;;;;;12.80;90.90;;;;;;4980681;28;19914;-76
2021/12/28 10:45:05;;;;;;;;;;;12.80;91.20;;;;;;4979738;28;19910;-76
2021/12/28 10:47:31;;;;;;;;;;;12.90;90.90;;;;;;4981496;28;19974;-75
2021/12/28 10:49:59;;;;;;;;;;;12.90;91.00;;;;;;4981082;28;20341;-76
2021/12/28 10:52:33;;;;;;;;;;;12.90;90.40;;;;;;4981338;28;20358;-76
2021/12/28 10:55:18;;;;;;;;;;;12.90;90.70;;;;;;4979590;28;19910;-75
2021/12/28 10:57:43;;;;;;;;;;;12.90;90.50;;;;;;4981025;28;19938;-76
2021/12/28 11:00:22;;;;;;;;;;;12.90;90.10;;;;;;4983776;28;19910;-76
2021/12/28 11:02:48;;;;;;;;;;;12.90;90.10;;;;;;4980912;28;19914;-76
2021/12/28 11:05:34;;;;;;;;;;;12.90;89.90;;;;;;4979556;28;19925;-76
2021/12/28 11:07:59;;;;;;;;;;;12.90;90.40;;;;;;4980727;28;19950;-76
2021/12/28 11:10:28;;;;;;;;;;;12.90;90.20;;;;;;4980811;28;19925;-76
2021/12/28 11:12:55;;;;;;;;;;;13.00;89.40;;;;;;4980535;28;20041;-76
2021/12/28 11:15:21;;;;;;;;;;;13.10;89.50;;;;;;4980860;28;20419;-76
2021/12/28 11:17:47;;;;;;;;;;;13.10;89.90;;;;;;4980486;28;20262;-75
2021/12/28 11:20:13;;;;;;;;;;;13.10;90.40;;;;;;4979180;28;19965;-76
2021/12/28 11:22:38;;;;;;;;;;;13.10;90.20;;;;;;4984954;28;19941;-76
2021/12/28 11:25:16;;;;;;;;;;;13.20;90.10;;;;;;5019392;28;19914;-76
2021/12/28 11:27:41;;;;;;;;;;;13.20;89.70;;;;;;5019327;28;20366;-76
2021/12/28 11:30:11;;;;;;;;;;;13.30;88.90;;;;;;5019587;28;20017;-76
2021/12/28 11:32:37;;;;;;;;;;;13.40;87.40;;;;;;5021680;28;19909;-76
2021/12/28 11:35:03;;;;;;;;;;;13.40;88.50;;;;;;5019634;28;19940;-76
2021/12/28 11:37:29;;;;;;;;;;;13.40;87.70;;;;;;5019343;28;19910;-76
2021/12/28 11:39:58;;;;;;;;;;;13.40;86.40;;;;;;5019282;28;20067;-76
2021/12/28 11:42:24;;;;;;;;;;;13.40;87.20;;;;;;5018488;28;19996;-76
2021/12/28 11:44:51;;;;;;;;;;;13.50;85.40;;;;;;5019266;28;19995;-76
2021/12/28 11:47:18;;;;;;;;;;;13.50;86.60;;;;;;5019162;28;19972;-76
2021/12/28 11:49:44;;;;;;;;;;;13.60;86.50;;;;;;5017960;28;19909;-76
2021/12/28 11:52:15;;;;;;;;;;;13.70;84.50;;;;;;5019496;28;20008;-76
2021/12/28 11:54:45;;;;;;;;;;;13.70;84.30;;;;;;5018874;28;19910;-76
2021/12/28 11:57:13;;;;;;;;;;;13.70;84.40;;;;;;5018743;28;19913;-76
2021/12/28 11:59:40;;;;;;;;;;;13.70;85.10;;;;;;5021040;28;19909;-76
2021/12/28 12:02:06;;;;;;;;;;;13.60;86.90;;;;;;5018836;28;19918;-77
2021/12/28 12:04:34;;;;;;;;;;;13.70;85.80;;;;;;5018733;28;19964;-76
2021/12/28 12:07:04;;;;;;;;;;;13.70;85.50;;;;;;5018574;28;19952;-76
2021/12/28 12:09:30;;;;;;;;;;;13.80;85.70;;;;;;5018444;28;19916;-76
2021/12/28 12:12:05;;;;;;;;;;;13.80;83.80;;;;;;5017590;28;19996;-76
2021/12/28 12:14:49;;;;;;;;;;;14.00;84.20;;;;;;5018515;28;19914;-76
2021/12/28 12:17:45;;;;;;;;;;;14.20;86.80;;;;;;5018498;28;19913;-76
2021/12/28 12:20:20;;;;;;;;;;;14.60;86.20;;;;;;5018788;28;20361;-77
2021/12/28 12:22:51;;;;;;;;;;;14.80;85.50;;;;;;5018030;28;19921;-77
2021/12/28 12:25:18;;;;;;;;;;;14.80;83.30;;;;;;5018198;28;19909;-77
2021/12/28 12:27:58;;;;;;;;;;;14.90;83.60;;;;;;5018207;28;19917;-77
2021/12/28 12:30:27;;;;;;;;;;;14.80;83.80;;;;;;5016943;28;19909;-77
2021/12/28 12:32:56;;;;;;;;;;;14.80;82.60;;;;;;5020598;28;19910;-76
2021/12/28 12:35:41;;;;;;;;;;;14.90;82.50;;;;;;5018297;28;19909;-77
2021/12/28 12:38:10;;;;;;;;;;;14.90;81.50;;;;;;5018722;28;19916;-77
2021/12/28 12:40:54;;;;;;;;;;;15.00;80.60;;;;;;5017648;28;19953;-77
2021/12/28 12:43:20;;;;;;;;;;;15.00;80.00;;;;;;5027248;28;20102;-77
2021/12/28 12:45:51;;;;;;;;;;;14.90;78.70;;;;;;5017658;28;20587;-77
2021/12/28 12:48:32;;;;;;;;;;;14.90;77.80;;;;;;5017977;28;20411;-77
2021/12/28 12:51:24;;;;;;;;;;;14.90;80.10;;;;;;5018023;28;20364;-76
2021/12/28 12:53:50;;;;;;;;;;;14.90;80.80;;;;;;5015409;28;19937;-76
2021/12/28 12:56:18;;;;;;;;;;;14.80;80.80;;;;;;5017550;28;19936;-77
2021/12/28 12:58:46;;;;;;;;;;;14.70;79.80;;;;;;5018007;28;19992;-77
2021/12/28 13:01:27;;;;;;;;;;;14.70;79.80;;;;;;5020969;28;19910;-77
2021/12/28 13:03:56;;;;;;;;;;;14.60;79.00;;;;;;5017695;28;20368;-77
2021/12/28 13:06:39;;;;;;;;;;;14.50;79.20;;;;;;5016843;28;19910;-77
2021/12/28 13:09:06;;;;;;;;;;;14.60;79.80;;;;;;5017613;28;19913;-77
2021/12/28 13:11:32;;;;;;;;;;;14.50;77.30;;;;;;5017383;28;19909;-77
2021/12/28 13:13:58;;;;;;;;;;;14.50;77.60;;;;;;5017547;28;20391;-77
2021/12/28 13:16:23;;;;;;;;;;;14.40;76.90;;;;;;5017335;28;19910;-77
2021/12/28 13:18:49;;;;;;;;;;;14.40;76.70;;;;;;5017244;28;19978;-77
2021/12/28 13:21:19;;;;;;;;;;;14.40;78.10;;;;;;5017535;28;19913;-77
2021/12/28 13:24:04;;;;;;;;;;;14.30;77.20;;;;;;5017427;28;19925;-77
2021/12/28 13:26:40;;;;;;;;;;;14.30;76.50;;;;;;5015880;28;19913;-77
2021/12/28 13:29:06;;;;;;;;;;;14.50;76.20;;;;;;5017651;28;19910;-77
2021/12/28 13:31:31;;;;;;;;;;;14.60;77.00;;;;;;5017572;28;19916;-77
2021/12/28 13:33:57;;;;;;;;;;;14.70;79.00;;;;;;5019422;28;19909;-77
2021/12/28 13:36:23;;;;;;;;;;;14.90;79.30;;;;;;5016165;28;19909;-77
2021/12/28 13:38:49;;;;;;;;;;;15.00;79.60;;;;;;5017306;28;19920;-77
2021/12/28 13:41:15;;;;;;;;;;;15.20;80.20;;;;;;5017109;28;19914;-77
2021/12/28 13:43:40;;;;;;;;;;;15.40;78.30;;;;;;5017226;28;19955;-77
2021/12/28 13:46:09;;;;;;;;;;;15.50;79.00;;;;;;5017482;28;19910;-77
2021/12/28 13:48:34;;;;;;;;;;;15.50;80.10;;;;;;5017324;28;19956;-77
2021/12/28 13:51:02;;;;;;;;;;;15.40;78.60;;;;;;5017385;28;19910;-77
2021/12/28 13:53:29;;;;;;;;;;;15.30;77.70;;;;;;5017397;28;19917;-77
2021/12/28 13:55:59;;;;;;;;;;;15.20;77.00;;;;;;5017036;28;19917;-77
2021/12/28 13:58:29;;;;;;;;;;;15.10;78.50;;;;;;5017217;28;19910;-77
2021/12/28 14:00:57;;;;;;;;;;;15.00;80.50;;;;;;5019855;28;19910;-77
2021/12/28 14:03:22;;;;;;;;;;;15.00;80.60;;;;;;5016996;28;20003;-77
2021/12/28 14:05:49;;;;;;;;;;;15.00;80.30;;;;;;5016110;28;19960;-77
2021/12/28 14:08:15;;;;;;;;;;;15.00;79.30;;;;;;5017076;28;19913;-78
2021/12/28 14:10:41;;;;;;;;;;;14.90;79.60;;;;;;5016869;28;20292;-77
2021/12/28 14:13:11;;;;;;;;;;;14.90;77.90;;;;;;5016857;28;19910;-77
2021/12/28 14:15:51;;;;;;;;;;;14.80;78.50;;;;;;5017120;28;20016;-77
2021/12/28 14:18:26;;;;;;;;;;;14.70;77.70;;;;;;5017145;28;19909;-77
2021/12/28 14:20:52;;;;;;;;;;;14.60;79.00;;;;;;5016981;28;19917;-77